Time;durP1;ratioP1;P1;durP2;ratioP2;P2;SDS_P1;SDS_P2;PMS_P1;PMS_P2;Temp;Humidity;BMP_temperature;BMP_pressure;BME280_temperature;BME280_humidity;BME280_pressure;Samples;Min_cycle;Max_cycle;Signal;HPM_P1;HPM_P2
2023/07/10 00:00:53;;;;;;;22.55;16.73;;;19.80;99.90;;;;;;5092239;28;20074;-66
2023/07/10 00:03:19;;;;;;;19.55;15.85;;;19.80;99.90;;;;;;5092035;28;20139;-66
2023/07/10 00:05:45;;;;;;;21.35;17.88;;;19.80;99.90;;;;;;5091684;28;20051;-65
2023/07/10 00:08:12;;;;;;;20.25;15.93;;;19.70;99.90;;;;;;5091934;28;20405;-66
2023/07/10 00:10:38;;;;;;;19.65;16.35;;;19.70;99.90;;;;;;5091862;28;20044;-67
2023/07/10 00:13:04;;;;;;;21.05;16.35;;;19.80;99.90;;;;;;5091914;28;20040;-66
2023/07/10 00:15:31;;;;;;;20.05;16.27;;;19.80;99.90;;;;;;5092231;28;20048;-66
2023/07/10 00:17:57;;;;;;;22.50;17.65;;;19.70;99.90;;;;;;5092031;28;20109;-67
2023/07/10 00:20:25;;;;;;;23.08;18.15;;;19.70;99.90;;;;;;5091325;28;20052;-66
2023/07/10 00:22:52;;;;;;;23.58;16.75;;;19.70;99.90;;;;;;5091792;28;20063;-66
2023/07/10 00:25:19;;;;;;;20.67;17.58;;;19.80;99.90;;;;;;5091868;28;20056;-66
2023/07/10 00:27:47;;;;;;;21.15;17.70;;;19.80;99.90;;;;;;5091787;28;20048;-65
2023/07/10 00:30:22;;;;;;;20.27;17.98;;;19.80;99.90;;;;;;5091376;28;20468;-66
2023/07/10 00:32:54;;;;;;;21.17;17.92;;;19.70;99.90;;;;;;5091664;28;20372;-66
2023/07/10 00:35:23;;;;;;;23.52;17.27;;;19.70;99.90;;;;;;5091498;28;20237;-66
2023/07/10 00:38:01;;;;;;;26.38;18.85;;;19.80;99.90;;;;;;5091758;28;20056;-66
2023/07/10 00:40:32;;;;;;;25.80;19.20;;;19.80;99.90;;;;;;5091167;28;20464;-66
2023/07/10 00:43:06;;;;;;;19.98;17.63;;;19.70;99.90;;;;;;5093869;28;20044;-66
2023/07/10 00:45:32;;;;;;;23.08;18.13;;;19.90;99.90;;;;;;5096125;28;20125;-66
2023/07/10 00:48:11;;;;;;;23.92;18.35;;;19.80;99.90;;;;;;5095507;28;20441;-66
2023/07/10 00:50:46;;;;;;;24.08;18.25;;;19.80;99.90;;;;;;5094733;28;20040;-66
2023/07/10 00:53:39;;;;;;;23.25;18.23;;;19.80;99.90;;;;;;5095339;28;20467;-66
2023/07/10 00:56:13;;;;;;;22.45;18.58;;;19.70;99.90;;;;;;5091539;28;20044;-66
2023/07/10 00:58:42;;;;;;;24.38;18.13;;;19.80;99.90;;;;;;5094901;28;20052;-66
2023/07/10 01:01:10;;;;;;;22.02;17.92;;;19.70;99.90;;;;;;5095420;28;20406;-66
2023/07/10 01:03:39;;;;;;;23.75;18.80;;;19.60;99.90;;;;;;5095085;28;20052;-66
2023/07/10 01:06:09;;;;;;;23.48;20.48;;;19.60;99.90;;;;;;5095272;28;20048;-66
2023/07/10 01:08:36;;;;;;;24.23;19.20;;;19.60;99.90;;;;;;5094972;28;20113;-65
2023/07/10 01:11:02;;;;;;;21.77;19.55;;;19.60;99.90;;;;;;5074832;28;20063;-66
2023/07/10 01:13:29;;;;;;;21.98;19.50;;;19.60;99.90;;;;;;5074568;28;20044;-66
2023/07/10 01:15:55;;;;;;;26.90;19.88;;;19.60;99.90;;;;;;5074907;28;20056;-66
2023/07/10 01:18:24;;;;;;;24.33;19.40;;;19.60;99.90;;;;;;5074854;28;20048;-66
2023/07/10 01:21:08;;;;;;;23.77;18.38;;;19.60;99.90;;;;;;5066984;28;20052;-65
2023/07/10 01:23:34;;;;;;;;;;;19.60;99.90;;;;;;5095279;28;20047;-66
2023/07/10 01:26:03;;;;;;;25.17;19.77;;;19.70;99.90;;;;;;5095349;28;19979;-66
2023/07/10 01:28:33;;;;;;;22.73;18.83;;;19.60;99.90;;;;;;5094648;28;20471;-65
2023/07/10 01:31:03;;;;;;;23.85;18.40;;;19.60;99.90;;;;;;5094734;28;20525;-67
2023/07/10 01:33:54;;;;;;;21.17;18.83;;;19.60;99.90;;;;;;5094758;28;20418;-66
2023/07/10 01:36:23;;;;;;;24.33;20.02;;;19.60;99.90;;;;;;5094381;28;20044;-66
2023/07/10 01:39:10;;;;;;;22.55;19.40;;;19.60;99.90;;;;;;5092160;28;20472;-65
2023/07/10 01:41:54;;;;;;;23.30;19.70;;;19.50;99.90;;;;;;5091178;28;20044;-65
2023/07/10 01:44:29;;;;;;;22.52;19.73;;;19.60;99.90;;;;;;5094418;28;20460;-66
2023/07/10 01:46:57;;;;;;;23.17;18.60;;;19.50;99.90;;;;;;5094501;28;20441;-65
2023/07/10 01:49:35;;;;;;;20.25;18.15;;;19.50;99.90;;;;;;5093896;28;20044;-65
2023/07/10 01:52:04;;;;;;;22.08;18.50;;;19.50;99.90;;;;;;5094644;28;20512;-65
2023/07/10 01:54:31;;;;;;;22.60;18.42;;;19.40;99.90;;;;;;5093591;28;20109;-66
2023/07/10 01:56:57;;;;;;;19.85;17.65;;;19.50;99.90;;;;;;5094236;28;20048;-65
2023/07/10 01:59:23;;;;;;;19.25;16.63;;;19.50;99.90;;;;;;5076405;28;20044;-65
2023/07/10 02:01:57;;;;;;;19.80;16.35;;;19.40;99.90;;;;;;5094130;28;20040;-66
2023/07/10 02:04:29;;;;;;;20.83;16.02;;;19.50;99.90;;;;;;5093928;28;20444;-66
2023/07/10 02:06:56;;;;;;;17.15;14.32;;;19.50;99.90;;;;;;5076388;28;20426;-65
2023/07/10 02:09:25;;;;;;;17.40;15.05;;;19.50;99.90;;;;;;5093988;28;20405;-66
2023/07/10 02:11:52;;;;;;;17.60;15.70;;;19.50;99.90;;;;;;5093852;28;20059;-65
2023/07/10 02:14:18;;;;;;;18.38;14.90;;;19.50;99.90;;;;;;5093625;28;20040;-66
2023/07/10 02:16:45;;;;;;;21.05;15.55;;;19.40;99.90;;;;;;5093934;28;20051;-65
2023/07/10 02:19:12;;;;;;;17.02;14.65;;;19.50;99.90;;;;;;5093133;28;20499;-65
2023/07/10 02:21:38;;;;;;;15.55;13.93;;;19.40;99.90;;;;;;5093787;28;20093;-66
2023/07/10 02:24:06;;;;;;;14.30;12.80;;;19.40;99.90;;;;;;5093813;28;20071;-66
2023/07/10 02:26:33;;;;;;;14.68;11.52;;;19.30;99.90;;;;;;5093813;28;20438;-66
2023/07/10 02:29:00;;;;;;;15.40;12.43;;;19.30;99.90;;;;;;5093718;28;20040;-65
2023/07/10 02:31:27;;;;;;;14.50;12.25;;;19.20;99.90;;;;;;5093732;28;20059;-65
2023/07/10 02:33:54;;;;;;;13.18;9.98;;;19.30;99.90;;;;;;5093089;28;20369;-66
2023/07/10 02:36:21;;;;;;;13.52;10.52;;;19.20;99.90;;;;;;5092979;28;20475;-66
2023/07/10 02:38:47;;;;;;;13.45;10.05;;;19.30;99.90;;;;;;5093085;28;20062;-65
2023/07/10 02:41:14;;;;;;;9.75;8.75;;;19.20;99.90;;;;;;5093465;28;20048;-66
2023/07/10 02:43:40;;;;;;;10.68;9.60;;;19.30;99.90;;;;;;5093111;28;20056;-66
2023/07/10 02:46:06;;;;;;;9.23;7.80;;;19.20;99.90;;;;;;5093621;28;20426;-66
2023/07/10 02:48:32;;;;;;;11.65;7.88;;;19.30;99.90;;;;;;5092886;28;20483;-65
2023/07/10 02:51:00;;;;;;;8.70;7.00;;;19.20;99.90;;;;;;5092623;28;20040;-65
2023/07/10 02:53:27;;;;;;;7.82;6.78;;;19.10;99.90;;;;;;5093185;28;20085;-65
2023/07/10 02:55:53;;;;;;;8.75;6.43;;;19.10;99.90;;;;;;5093109;28;20055;-65
2023/07/10 02:58:19;;;;;;;8.38;6.38;;;19.10;99.90;;;;;;5075198;28;20056;-66
2023/07/10 03:00:58;;;;;;;9.13;5.38;;;19.00;99.90;;;;;;5092691;28;20086;-66
2023/07/10 03:03:25;;;;;;;7.75;5.45;;;19.00;99.90;;;;;;5092652;28;20055;-65
2023/07/10 03:06:00;;;;;;;6.45;4.63;;;19.00;99.90;;;;;;5091991;28;20085;-65
2023/07/10 03:08:27;;;;;;;6.63;4.15;;;19.00;99.90;;;;;;5092905;28;20044;-66
2023/07/10 03:11:02;;;;;;;5.32;4.20;;;19.00;99.90;;;;;;5092490;28;20047;-65
2023/07/10 03:13:28;;;;;;;6.25;3.85;;;19.00;99.90;;;;;;5092756;28;20048;-66
2023/07/10 03:16:07;;;;;;;4.82;3.53;;;19.00;99.90;;;;;;5093048;28;20048;-66
2023/07/10 03:18:33;;;;;;;5.72;3.58;;;19.00;99.90;;;;;;5092700;28;20376;-65
2023/07/10 03:20:59;;;;;;;5.50;3.30;;;19.00;99.90;;;;;;5091999;28;20052;-66
2023/07/10 03:23:26;;;;;;;5.78;3.42;;;18.90;99.90;;;;;;5092505;28;20055;-66
2023/07/10 03:25:52;;;;;;;4.95;2.85;;;18.90;99.90;;;;;;5092934;28;20422;-66
2023/07/10 03:28:19;;;;;;;5.07;3.38;;;18.80;99.90;;;;;;5092761;28;20106;-65
2023/07/10 03:30:45;;;;;;;4.78;3.25;;;18.90;99.90;;;;;;5092027;28;20051;-66
2023/07/10 03:33:13;;;;;;;6.20;3.42;;;18.80;99.90;;;;;;5092379;28;20048;-65
2023/07/10 03:35:40;;;;;;;5.20;3.22;;;18.80;99.90;;;;;;5092609;28;20055;-65
2023/07/10 03:38:07;;;;;;;5.95;3.08;;;18.80;99.90;;;;;;5093181;28;20055;-66
2023/07/10 03:40:33;;;;;;;4.45;2.97;;;18.90;99.90;;;;;;5092865;28;20055;-65
2023/07/10 03:42:59;;;;;;;4.97;2.50;;;18.80;99.90;;;;;;5092659;28;20456;-65
2023/07/10 03:45:26;;;;;;;4.95;3.08;;;18.80;99.90;;;;;;5093155;28;20113;-65
2023/07/10 03:47:52;;;;;;;5.95;2.90;;;18.80;99.90;;;;;;5092841;28;20062;-66
2023/07/10 03:50:18;;;;;;;5.43;2.80;;;18.80;99.90;;;;;;5071731;28;20354;-66
2023/07/10 03:52:44;;;;;;;5.78;2.65;;;18.90;99.90;;;;;;5090126;28;20044;-65
2023/07/10 03:55:10;;;;;;;5.57;2.95;;;18.90;99.90;;;;;;5093039;28;20048;-66
2023/07/10 03:57:37;;;;;;;5.30;2.53;;;18.90;99.90;;;;;;5058165;28;20104;-65
2023/07/10 04:00:05;;;;;;;4.28;2.40;;;18.80;99.90;;;;;;5074516;28;20109;-65
2023/07/10 04:02:31;;;;;;;4.05;2.30;;;18.90;99.90;;;;;;5074262;28;20059;-65
2023/07/10 04:05:01;;;;;;;5.68;2.40;;;18.80;99.90;;;;;;5074490;28;20052;-65
2023/07/10 04:07:27;;;;;;;4.13;2.30;;;18.80;99.90;;;;;;5074409;28;20052;-66
2023/07/10 04:09:53;;;;;;;3.85;2.75;;;18.90;99.90;;;;;;5091801;28;20097;-66
2023/07/10 04:12:19;;;;;;;4.13;2.15;;;18.80;99.90;;;;;;5073926;28;20079;-65
2023/07/10 04:14:46;;;;;;;4.97;2.50;;;18.80;99.90;;;;;;5091934;28;20047;-66
2023/07/10 04:17:14;;;;;;;4.70;2.33;;;18.90;99.90;;;;;;5092677;28;20059;-65
2023/07/10 04:19:41;;;;;;;3.83;2.15;;;18.90;99.90;;;;;;5088313;28;20048;-64
2023/07/10 04:22:07;;;;;;;4.88;2.30;;;18.90;99.90;;;;;;5095726;28;20044;-67
2023/07/10 04:24:33;;;;;;;4.32;2.20;;;19.00;99.90;;;;;;5095970;28;20048;-66
2023/07/10 04:27:00;;;;;;;4.65;2.55;;;18.90;99.90;;;;;;5083777;28;20048;-66
2023/07/10 04:29:26;;;;;;;6.18;2.72;;;19.00;99.90;;;;;;5082642;28;20422;-65
2023/07/10 04:31:52;;;;;;;7.82;2.80;;;19.00;99.90;;;;;;5069886;28;20048;-66
2023/07/10 04:34:18;;;;;;;5.57;2.25;;;19.00;99.90;;;;;;5085216;28;20066;-65
2023/07/10 04:36:45;;;;;;;4.80;2.28;;;19.00;99.90;;;;;;5067108;28;20037;-65
2023/07/10 04:39:11;;;;;;;5.78;2.40;;;19.00;99.90;;;;;;5067390;28;20045;-66
2023/07/10 04:41:38;;;;;;;4.95;2.58;;;19.10;99.90;;;;;;5066241;28;20041;-66
2023/07/10 04:44:05;;;;;;;7.20;2.67;;;19.00;99.90;;;;;;5063562;28;20114;-66
2023/07/10 04:46:31;;;;;;;5.95;2.67;;;19.00;99.90;;;;;;5063893;28;20381;-66
2023/07/10 04:48:57;;;;;;;4.13;1.98;;;19.00;99.90;;;;;;5067215;28;20049;-66
2023/07/10 04:51:23;;;;;;;5.05;2.53;;;19.00;99.90;;;;;;5065277;28;20385;-66
2023/07/10 04:53:50;;;;;;;4.82;2.47;;;19.00;99.90;;;;;;5064125;28;20373;-66
2023/07/10 04:56:18;;;;;;;5.70;2.42;;;19.00;99.90;;;;;;5075155;28;20040;-66
2023/07/10 04:58:51;;;;;;;5.38;2.75;;;19.00;99.90;;;;;;5074426;28;20057;-66
2023/07/10 05:01:19;;;;;;;5.03;2.40;;;19.00;99.90;;;;;;5055143;28;20095;-66
2023/07/10 05:03:46;;;;;;;5.88;2.55;;;19.00;99.90;;;;;;5054857;28;20061;-66
2023/07/10 05:06:12;;;;;;;5.43;2.80;;;19.10;99.90;;;;;;5063375;28;20206;-66
2023/07/10 05:08:40;;;;;;;8.20;3.25;;;19.10;99.90;;;;;;5074640;28;20044;-66
2023/07/10 05:11:07;;;;;;;6.03;3.08;;;19.10;99.90;;;;;;5067726;28;20434;-66
2023/07/10 05:13:33;;;;;;;6.50;3.35;;;19.10;99.90;;;;;;5054392;28;20468;-66
2023/07/10 05:15:59;;;;;;;5.90;2.60;;;19.10;99.90;;;;;;5061571;28;20052;-65
2023/07/10 05:18:26;;;;;;;7.25;3.50;;;19.10;99.90;;;;;;5074331;28;20056;-66
2023/07/10 05:20:53;;;;;;;8.07;3.20;;;19.20;99.90;;;;;;5070747;28;20058;-66
2023/07/10 05:23:20;;;;;;;6.47;3.25;;;19.30;99.90;;;;;;5060120;28;20063;-65
2023/07/10 05:26:01;;;;;;;9.88;3.00;;;19.30;99.90;;;;;;5068822;28;20037;-65
2023/07/10 05:28:27;;;;;;;8.55;3.08;;;19.30;99.90;;;;;;5053362;28;20520;-65
2023/07/10 05:30:57;;;;;;;6.32;3.10;;;19.50;99.90;;;;;;5072016;28;20050;-66
2023/07/10 05:33:23;;;;;;;5.65;2.72;;;19.70;99.90;;;;;;5074127;28;20419;-65
2023/07/10 05:35:55;;;;;;;4.75;2.67;;;20.20;99.90;;;;;;5086926;28;20475;-66
2023/07/10 05:38:24;;;;;;;7.13;3.00;;;20.60;99.90;;;;;;5094637;28;20360;-65
2023/07/10 05:40:50;;;;;;;7.00;3.15;;;20.70;99.90;;;;;;5078344;28;20361;-65
2023/07/10 05:43:16;;;;;;;7.95;2.70;;;20.70;99.90;;;;;;5079602;28;20117;-65
2023/07/10 05:45:42;;;;;;;6.47;3.33;;;20.90;99.90;;;;;;5094353;28;20113;-65
2023/07/10 05:48:09;;;;;;;5.50;2.35;;;21.40;99.90;;;;;;5084951;28;20048;-65
2023/07/10 05:50:35;;;;;;;7.07;3.20;;;22.10;99.90;;;;;;5088746;28;20526;-65
2023/07/10 05:53:02;;;;;;;7.80;3.20;;;23.10;99.90;;;;;;5093754;28;20048;-66
2023/07/10 05:55:28;;;;;;;8.90;3.33;;;24.10;99.90;;;;;;5094208;28;20055;-65
2023/07/10 05:57:54;;;;;;;6.35;3.30;;;24.10;99.90;;;;;;5094051;28;20102;-65
2023/07/10 06:00:21;;;;;;;7.15;2.95;;;23.80;99.90;;;;;;5092649;28;20456;-66
2023/07/10 06:02:47;;;;;;;5.95;2.75;;;23.40;99.90;;;;;;5093285;28;20439;-66
2023/07/10 06:05:18;;;;;;;6.60;3.35;;;22.80;99.90;;;;;;5092859;28;20059;-66
2023/07/10 06:07:45;;;;;;;7.53;3.03;;;22.70;99.90;;;;;;5083303;28;20045;-66
2023/07/10 06:10:11;;;;;;;7.60;2.88;;;22.40;99.90;;;;;;5065021;28;20048;-66
2023/07/10 06:12:37;;;;;;;5.50;3.25;;;22.10;99.90;;;;;;5073324;28;20059;-67
2023/07/10 06:15:10;;;;;;;5.70;3.45;;;22.10;99.90;;;;;;5066889;28;20037;-67
2023/07/10 06:17:37;;;;;;;9.10;3.92;;;22.30;99.90;;;;;;5082023;28;20103;-67
2023/07/10 06:20:03;;;;;;;9.13;3.90;;;22.90;99.90;;;;;;5083196;28;20535;-67
2023/07/10 06:22:30;;;;;;;8.15;4.40;;;23.70;99.90;;;;;;5073266;28;20484;-68
2023/07/10 06:24:56;;;;;;;8.52;4.88;;;24.40;99.90;;;;;;5073459;28;20125;-67
2023/07/10 06:27:22;;;;;;;8.00;4.10;;;25.10;99.90;;;;;;5056179;28;20040;-66
2023/07/10 06:29:50;;;;;;;8.88;4.32;;;25.70;99.90;;;;;;5085676;28;20048;-66
2023/07/10 06:32:16;;;;;;;8.32;4.60;;;25.90;99.90;;;;;;5076786;28;20052;-66
2023/07/10 06:34:42;;;;;;;8.98;4.20;;;26.00;99.90;;;;;;5069885;28;20067;-66
2023/07/10 06:37:08;;;;;;;10.43;4.45;;;26.00;99.90;;;;;;5053893;28;20052;-66
2023/07/10 06:39:35;;;;;;;6.28;4.15;;;25.90;99.90;;;;;;5072209;28;20045;-67
2023/07/10 06:42:01;;;;;;;8.45;3.50;;;25.80;99.90;;;;;;5073221;28;20518;-66
2023/07/10 06:44:27;;;;;;;7.07;3.65;;;25.80;99.90;;;;;;5062634;28;20037;-67
2023/07/10 06:46:53;;;;;;;9.82;4.13;;;26.00;99.90;;;;;;5071838;28;20377;-67
2023/07/10 06:49:19;;;;;;;9.38;4.30;;;26.60;99.90;;;;;;5073042;28;20457;-67
2023/07/10 06:51:46;;;;;;;9.40;4.15;;;26.40;99.90;;;;;;5072486;28;20102;-67
2023/07/10 06:54:12;;;;;;;8.15;3.35;;;26.50;99.90;;;;;;5073433;28;20055;-67
2023/07/10 06:56:38;;;;;;;7.50;3.22;;;26.30;99.90;;;;;;5073275;28;20465;-67
2023/07/10 06:59:05;;;;;;;6.90;3.40;;;26.40;99.90;;;;;;5072329;28;20431;-67
2023/07/10 07:01:31;;;;;;;8.98;3.00;;;26.50;99.90;;;;;;5072964;28;20064;-67
2023/07/10 07:03:57;;;;;;;8.90;3.72;;;26.70;99.90;;;;;;5073306;28;20056;-67
2023/07/10 07:06:23;;;;;;;5.75;3.38;;;25.90;99.90;;;;;;5073105;28;20053;-66
2023/07/10 07:08:52;;;;;;;7.57;3.05;;;25.30;99.90;;;;;;5073213;28;20068;-67
2023/07/10 07:11:18;;;;;;;7.72;3.05;;;25.20;99.90;;;;;;5071956;28;20056;-67
2023/07/10 07:13:45;;;;;;;8.55;3.17;;;24.80;99.90;;;;;;5073192;28;20113;-67
2023/07/10 07:16:11;;;;;;;7.55;3.17;;;24.70;99.90;;;;;;5073209;28;20062;-66
2023/07/10 07:18:37;;;;;;;8.75;3.03;;;24.60;99.90;;;;;;5070888;28;20044;-66
2023/07/10 07:21:05;;;;;;;8.52;3.78;;;24.40;99.90;;;;;;5062056;28;20087;-66
2023/07/10 07:23:31;;;;;;;6.68;2.80;;;24.30;99.90;;;;;;5052703;28;20390;-66
2023/07/10 07:25:58;;;;;;;8.43;3.50;;;24.50;99.90;;;;;;5052645;28;20111;-66
2023/07/10 07:28:29;;;;;;;5.45;3.10;;;24.30;99.90;;;;;;5052802;28;20048;-67
2023/07/10 07:31:05;;;;;;;6.05;3.05;;;24.30;99.90;;;;;;5069414;28;20044;-66
2023/07/10 07:33:32;;;;;;;9.02;3.53;;;24.40;99.90;;;;;;5073052;28;20049;-67
2023/07/10 07:36:00;;;;;;;8.85;3.20;;;24.70;99.90;;;;;;5086185;28;20047;-66
2023/07/10 07:38:27;;;;;;;5.00;2.63;;;24.20;99.90;;;;;;5093174;28;20085;-67
2023/07/10 07:40:56;;;;;;;8.30;3.20;;;24.20;99.90;;;;;;5092352;28;20051;-67
2023/07/10 07:43:22;;;;;;;7.43;3.53;;;24.20;99.90;;;;;;5092944;28;20054;-66
2023/07/10 07:45:56;;;;;;;10.20;3.42;;;24.10;99.90;;;;;;5093090;28;20160;-66
2023/07/10 07:48:24;;;;;;;7.40;3.88;;;24.20;99.90;;;;;;5092830;28;20048;-66
2023/07/10 07:50:58;;;;;;;6.60;3.30;;;24.20;99.90;;;;;;5092316;28;20040;-66
2023/07/10 07:53:24;;;;;;;7.05;2.85;;;24.10;99.90;;;;;;5092035;28;20044;-66
2023/07/10 07:55:51;;;;;;;7.45;2.97;;;24.10;99.90;;;;;;5075160;28;20048;-66
2023/07/10 07:58:17;;;;;;;9.13;3.85;;;24.10;99.90;;;;;;5092731;28;20052;-67
2023/07/10 08:00:44;;;;;;;10.07;3.30;;;24.10;99.90;;;;;;5091603;28;20534;-67
2023/07/10 08:03:11;;;;;;;7.80;3.80;;;23.70;99.90;;;;;;5092906;28;20040;-67
2023/07/10 08:05:38;;;;;;;9.75;3.60;;;23.70;99.90;;;;;;5092625;28;20344;-67
2023/07/10 08:08:06;;;;;;;8.75;3.22;;;23.80;99.90;;;;;;5092652;28;20052;-66
2023/07/10 08:10:34;;;;;;;9.55;3.88;;;23.90;99.90;;;;;;5091871;28;20400;-66
2023/07/10 08:13:03;;;;;;;9.88;3.70;;;24.10;99.90;;;;;;5092397;28;20044;-67
2023/07/10 08:15:30;;;;;;;7.53;3.60;;;24.10;99.90;;;;;;5092390;28;20044;-66
2023/07/10 08:17:57;;;;;;;7.90;3.40;;;24.10;99.90;;;;;;5092499;28;20044;-66
2023/07/10 08:20:23;;;;;;;7.97;3.42;;;24.00;99.90;;;;;;5091931;28;20056;-67
2023/07/10 08:22:49;;;;;;;11.10;4.10;;;23.90;99.90;;;;;;5092344;28;20119;-66
2023/07/10 08:25:16;;;;;;;9.45;3.55;;;23.90;99.90;;;;;;5092300;28;20062;-66
2023/07/10 08:27:43;;;;;;;11.23;3.88;;;24.10;99.90;;;;;;5092851;28;20117;-66
2023/07/10 08:30:10;;;;;;;7.65;3.70;;;24.00;99.90;;;;;;5091447;28;20044;-66
2023/07/10 08:32:36;;;;;;;8.50;3.28;;;24.10;99.90;;;;;;5092370;28;20059;-67
2023/07/10 08:35:03;;;;;;;7.55;3.55;;;24.00;99.90;;;;;;5092006;28;20492;-66
2023/07/10 08:37:29;;;;;;;8.23;3.33;;;24.10;99.90;;;;;;5092365;28;20059;-66
2023/07/10 08:39:56;;;;;;;10.25;3.90;;;24.10;99.90;;;;;;5091633;28;20125;-66
2023/07/10 08:42:29;;;;;;;9.95;3.65;;;23.80;99.90;;;;;;5074105;28;20499;-66
2023/07/10 08:44:56;;;;;;;9.13;3.80;;;23.80;99.90;;;;;;5092412;28;20052;-66
2023/07/10 08:47:26;;;;;;;10.70;3.92;;;23.70;99.90;;;;;;5092213;28;20056;-66
2023/07/10 08:50:09;;;;;;;7.00;3.10;;;23.80;99.90;;;;;;5091315;28;20498;-66
2023/07/10 08:52:59;;;;;;;11.10;3.85;;;23.90;99.90;;;;;;5092148;28;20044;-67
2023/07/10 08:55:36;;;;;;;10.82;4.00;;;23.90;99.90;;;;;;5072406;28;20071;-67
2023/07/10 08:58:04;;;;;;;9.70;3.80;;;23.80;99.90;;;;;;5072044;28;20044;-66
2023/07/10 09:00:39;;;;;;;7.05;3.10;;;23.80;99.90;;;;;;5084408;28;20047;-67
2023/07/10 09:03:30;;;;;;;10.80;3.63;;;23.90;99.90;;;;;;5092806;28;20044;-67
2023/07/10 09:05:58;;;;;;;9.38;3.40;;;23.90;99.90;;;;;;5095588;28;20434;-66
2023/07/10 09:08:27;;;;;;;8.90;3.15;;;24.00;99.90;;;;;;5095509;28;20052;-66
2023/07/10 09:10:58;;;;;;;9.95;3.50;;;23.90;99.90;;;;;;5095181;28;20065;-66
2023/07/10 09:13:34;;;;;;;8.07;3.55;;;24.20;99.90;;;;;;5095608;28;20048;-66
2023/07/10 09:16:08;;;;;;;7.53;3.50;;;24.10;99.90;;;;;;5095645;28;20048;-67
2023/07/10 09:18:46;;;;;;;7.13;3.30;;;24.00;99.90;;;;;;5092503;28;20052;-66
2023/07/10 09:21:18;;;;;;;10.18;4.22;;;24.00;99.90;;;;;;5066954;28;20063;-66
2023/07/10 09:23:46;;;;;;;8.18;3.75;;;24.00;99.90;;;;;;5084376;28;20036;-66
2023/07/10 09:26:18;;;;;;;10.68;3.05;;;24.00;99.90;;;;;;5075173;28;20082;-66
2023/07/10 09:28:59;;;;;;;10.43;3.78;;;24.00;99.90;;;;;;5075157;28;20052;-66
2023/07/10 09:31:53;;;;;;;9.23;3.70;;;24.00;99.90;;;;;;5094965;28;20113;-66
2023/07/10 09:34:22;;;;;;;8.68;3.55;;;24.10;99.90;;;;;;5095167;28;20036;-67
2023/07/10 09:36:52;;;;;;;9.90;3.58;;;24.10;99.90;;;;;;5095215;28;20055;-66
2023/07/10 09:39:19;;;;;;;9.80;3.78;;;24.20;99.90;;;;;;5094347;28;20059;-66
2023/07/10 09:41:47;;;;;;;8.90;3.47;;;24.30;99.90;;;;;;5095274;28;20040;-66
2023/07/10 09:44:19;;;;;;;9.88;4.20;;;24.30;99.90;;;;;;5095103;28;20059;-66
2023/07/10 09:46:46;;;;;;;7.53;3.40;;;24.20;99.90;;;;;;5095072;28;20113;-66
2023/07/10 09:49:21;;;;;;;9.45;3.97;;;24.30;99.90;;;;;;5094198;28;20083;-66
2023/07/10 09:52:03;;;;;;;13.85;4.28;;;24.30;99.90;;;;;;5095133;28;20048;-66
2023/07/10 09:54:39;;;;;;;10.00;3.65;;;24.40;99.90;;;;;;5056722;28;20052;-67
2023/07/10 09:57:18;;;;;;;8.70;3.50;;;24.20;99.90;;;;;;5074875;28;20052;-67
2023/07/10 09:59:53;;;;;;;11.18;4.60;;;24.20;99.90;;;;;;5062011;28;20444;-66
2023/07/10 10:02:32;;;;;;;10.80;4.43;;;24.10;99.90;;;;;;5094888;28;20577;-65
2023/07/10 10:05:19;;;;;;;14.10;4.28;;;24.10;99.90;;;;;;5094779;28;20113;-65
2023/07/10 10:07:47;;;;;;;8.77;3.83;;;24.30;99.90;;;;;;5095105;28;20498;-66
2023/07/10 10:10:27;;;;;;;9.52;3.90;;;24.40;99.90;;;;;;5093916;28;20055;-66
2023/07/10 10:13:04;;;;;;;6.93;3.20;;;24.60;99.90;;;;;;5094655;28;20459;-66
2023/07/10 10:15:41;;;;;;;7.60;2.95;;;24.80;99.90;;;;;;5094059;28;20048;-66
2023/07/10 10:18:24;;;;;;;8.15;3.55;;;24.60;99.90;;;;;;5094661;28;20052;-66
2023/07/10 10:20:51;;;;;;;9.75;3.22;;;24.50;99.90;;;;;;5087173;28;20457;-66
2023/07/10 10:23:31;;;;;;;7.35;2.80;;;24.30;99.90;;;;;;5084648;28;20376;-66
2023/07/10 10:26:30;;;;;;;7.13;2.88;;;24.40;99.90;;;;;;5085017;28;20048;-66
2023/07/10 10:29:22;;;;;;;7.55;2.75;;;24.40;99.90;;;;;;5084403;28;20053;-66
2023/07/10 10:31:58;;;;;;;9.68;3.35;;;24.50;99.90;;;;;;5083381;28;20072;-66
2023/07/10 10:34:32;;;;;;;9.02;3.20;;;24.60;99.90;;;;;;5081919;28;20044;-66
2023/07/10 10:37:13;;;;;;;8.85;3.55;;;24.50;99.90;;;;;;5061914;28;20401;-66
2023/07/10 10:39:55;;;;;;;10.73;3.72;;;24.60;99.90;;;;;;5061910;28;20082;-66
2023/07/10 10:42:40;;;;;;;10.73;3.42;;;24.70;99.90;;;;;;5073556;28;20049;-66
2023/07/10 10:45:24;;;;;;;9.05;2.97;;;24.80;99.90;;;;;;5073842;28;20045;-66
2023/07/10 10:48:22;;;;;;;11.75;3.35;;;24.70;99.90;;;;;;5073800;28;20059;-66
2023/07/10 10:50:59;;;;;;;10.52;3.03;;;24.70;99.90;;;;;;5087228;28;20460;-65
2023/07/10 10:53:41;;;;;;;6.85;2.65;;;24.80;99.90;;;;;;5086934;28;20446;-65
2023/07/10 10:56:21;;;;;;;9.63;3.13;;;25.00;99.90;;;;;;5073827;28;20102;-66
2023/07/10 10:59:25;;;;;;;8.32;3.05;;;25.00;99.90;;;;;;5056793;28;20080;-66
2023/07/10 11:02:01;;;;;;;10.05;3.10;;;25.00;99.90;;;;;;5053463;28;20053;-66
2023/07/10 11:04:39;;;;;;;6.88;3.10;;;25.30;99.90;;;;;;5053384;28;20192;-66
2023/07/10 11:07:16;;;;;;;9.40;3.10;;;25.10;99.90;;;;;;5053071;28;20111;-66
2023/07/10 11:09:55;;;;;;;6.47;3.00;;;24.90;99.90;;;;;;5058131;28;20142;-67
2023/07/10 11:12:30;;;;;;;8.88;2.72;;;25.10;99.90;;;;;;5073012;28;20052;-66
2023/07/10 11:15:01;;;;;;;8.40;2.40;;;25.20;99.90;;;;;;5073075;28;20118;-66
2023/07/10 11:17:27;;;;;;;6.45;2.45;;;24.90;99.90;;;;;;5072899;28;20048;-65
2023/07/10 11:19:53;;;;;;;7.65;3.05;;;24.70;99.90;;;;;;5078436;28;20044;-66
2023/07/10 11:22:28;;;;;;;8.23;2.58;;;24.60;99.90;;;;;;5093166;28;20048;-66
2023/07/10 11:24:55;;;;;;;8.18;2.90;;;24.60;99.90;;;;;;5093192;28;20059;-66
2023/07/10 11:27:27;;;;;;;10.32;4.05;;;24.60;99.90;;;;;;5092460;28;20051;-66
2023/07/10 11:30:05;;;;;;;6.40;2.65;;;24.70;99.90;;;;;;5086143;28;20052;-66
2023/07/10 11:32:35;;;;;;;6.90;2.20;;;24.80;99.90;;;;;;5073017;28;20444;-65
2023/07/10 11:35:18;;;;;;;6.03;2.58;;;24.90;99.90;;;;;;5078835;28;20048;-65
2023/07/10 11:37:47;;;;;;;8.10;2.65;;;24.70;99.60;;;;;;5093003;28;20048;-65
2023/07/10 11:40:29;;;;;;;7.03;2.47;;;24.80;99.30;;;;;;5091866;28;20407;-65
2023/07/10 11:42:59;;;;;;;7.78;2.28;;;24.80;99.40;;;;;;5092798;28;20085;-65
2023/07/10 11:45:30;;;;;;;4.70;2.20;;;24.80;99.90;;;;;;5093026;28;20129;-66
2023/07/10 11:47:57;;;;;;;7.63;2.35;;;24.80;99.90;;;;;;5092836;28;20063;-66
2023/07/10 11:50:26;;;;;;;5.60;2.25;;;24.70;99.70;;;;;;5091590;28;20056;-65
2023/07/10 11:53:20;;;;;;;4.82;2.00;;;24.80;99.40;;;;;;5092683;28;20047;-67
2023/07/10 11:55:57;;;;;;;6.80;1.90;;;24.90;98.40;;;;;;5093191;28;20452;-66
2023/07/10 11:58:26;;;;;;;5.57;2.15;;;24.80;98.50;;;;;;5092668;28;20468;-66
2023/07/10 12:00:58;;;;;;;6.55;2.17;;;24.70;98.20;;;;;;5091888;28;20057;-66
2023/07/10 12:03:24;;;;;;;5.07;1.95;;;24.70;98.30;;;;;;5092695;28;20048;-66
2023/07/10 12:05:50;;;;;;;5.57;1.88;;;24.80;98.40;;;;;;5092480;28;20048;-66
2023/07/10 12:08:17;;;;;;;8.43;2.35;;;24.80;98.50;;;;;;5092320;28;20389;-65
2023/07/10 12:10:50;;;;;;;9.13;2.80;;;25.10;98.30;;;;;;5091700;28;20059;-66
2023/07/10 12:13:23;;;;;;;10.02;2.70;;;25.00;98.20;;;;;;5092210;28;20056;-66
2023/07/10 12:15:52;;;;;;;5.13;2.38;;;25.20;98.10;;;;;;5092698;28;20052;-67
2023/07/10 12:18:25;;;;;;;6.00;2.30;;;25.10;98.30;;;;;;5092654;28;20068;-66
2023/07/10 12:20:53;;;;;;;10.70;2.70;;;25.20;98.10;;;;;;5091869;28;20043;-66
2023/07/10 12:23:19;;;;;;;5.40;2.40;;;25.20;98.10;;;;;;5092605;28;20086;-66
2023/07/10 12:25:51;;;;;;;8.25;2.42;;;25.20;97.80;;;;;;5074448;28;20067;-66
2023/07/10 12:28:23;;;;;;;5.57;1.90;;;25.20;97.70;;;;;;5092488;28;20044;-66
2023/07/10 12:30:51;;;;;;;6.82;2.13;;;24.80;97.60;;;;;;5092038;28;20040;-66
2023/07/10 12:33:46;;;;;;;10.07;2.17;;;24.90;98.10;;;;;;5092230;28;20048;-66
2023/07/10 12:36:33;;;;;;;6.57;3.22;;;25.00;97.90;;;;;;5091979;28;20044;-66
2023/07/10 12:39:04;;;;;;;7.22;2.17;;;25.10;97.70;;;;;;5094573;28;20048;-66
2023/07/10 12:41:38;;;;;;;7.25;2.17;;;24.90;97.70;;;;;;5095770;28;20048;-66
2023/07/10 12:44:05;;;;;;;6.57;2.15;;;25.00;97.20;;;;;;5096522;28;20048;-65
2023/07/10 12:46:32;;;;;;;4.72;1.90;;;25.10;97.40;;;;;;5096260;28;20581;-66
2023/07/10 12:49:02;;;;;;;7.95;2.13;;;25.10;97.70;;;;;;5095432;28;20051;-66
2023/07/10 12:51:36;;;;;;;7.05;2.15;;;25.10;97.70;;;;;;5094899;28;20044;-67
2023/07/10 12:54:09;;;;;;;8.00;2.38;;;25.10;97.50;;;;;;5095890;28;20040;-66
2023/07/10 12:56:38;;;;;;;9.52;2.50;;;25.10;97.50;;;;;;5096414;28;20056;-65
2023/07/10 12:59:24;;;;;;;7.00;2.05;;;25.20;97.80;;;;;;5095456;28;20462;-66